Adrian, Washington
Current Conditions -  °F | °C
As of 4:53 AM on Saturday 25 Oct 2014 (Local Time) from KEPH Reporting Station
Clear Clear  
Wind Chill: 44°   Ceiling: Unl
Heat Index: 49°   Visibility: 10mi
Dew Point: 44°   Wind: 12mph
Humidity: 83%   Direction: 340°NNW
Pressure: 29.75"   Gusts: NA
Location:  47.4314°N, 119.485°W
Report Text: KEPH 251153Z AUTO 34010KT 10SM CLR 09/07 A2975 RMK AO2 SLP075 70018 T00940067 10106 20089 58026
Loading
Personal Weather Stations






























Interactive Weather Map
Tropical Storm Tracking
New forecast layout! Learn more

10-Day Weather Forecast

Advertisements
Track Severe Weather on mobile